Time;durP1;ratioP1;P1;durP2;ratioP2;P2;SDS_P1;SDS_P2;PMS_P1;PMS_P2;Temp;Humidity;BMP_temperature;BMP_pressure;BME280_temperature;BME280_humidity;BME280_pressure;Samples;Min_cycle;Max_cycle;Signal;HPM_P1;HPM_P2
2021/04/07 00:01:04;;;;;;;;;;;24.50;48.10;;;;;;5114287;28;19918;-53
2021/04/07 00:03:30;;;;;;;;;;;24.50;48.10;;;;;;5114660;28;20284;-53
2021/04/07 00:05:56;;;;;;;;;;;24.40;48.00;;;;;;5114000;28;20356;-52
2021/04/07 00:08:25;;;;;;;;;;;24.50;47.90;;;;;;5095488;28;19912;-52
2021/04/07 00:10:52;;;;;;;;;;;24.40;47.90;;;;;;5113831;28;19977;-52
2021/04/07 00:13:18;;;;;;;;;;;24.40;47.90;;;;;;5095480;28;19919;-52
2021/04/07 00:15:44;;;;;;;;;;;24.40;48.00;;;;;;5113661;28;19911;-52
2021/04/07 00:18:10;;;;;;;;;;;24.40;47.90;;;;;;5114580;28;19916;-51
2021/04/07 00:20:36;;;;;;;;;;;24.40;47.90;;;;;;5096201;28;19955;-52
2021/04/07 00:23:03;;;;;;;;;;;24.40;47.80;;;;;;5114015;28;19946;-52
2021/04/07 00:25:28;;;;;;;;;;;24.40;47.80;;;;;;5114194;28;19920;-52
2021/04/07 00:27:58;;;;;;;;;;;24.40;47.70;;;;;;5113591;28;19988;-52
2021/04/07 00:30:28;;;;;;;;;;;24.40;47.70;;;;;;5114031;28;19911;-52
2021/04/07 00:32:54;;;;;;;;;;;24.40;47.70;;;;;;5113794;28;19941;-53
2021/04/07 00:35:20;;;;;;;;;;;24.30;47.60;;;;;;5114126;28;19907;-52
2021/04/07 00:37:46;;;;;;;;;;;24.30;47.60;;;;;;5113806;28;19958;-53
2021/04/07 00:40:13;;;;;;;;;;;24.30;47.60;;;;;;5096168;28;19947;-52
2021/04/07 00:42:39;;;;;;;;;;;24.30;47.50;;;;;;5113520;28;19947;-53
2021/04/07 00:45:06;;;;;;;;;;;24.30;47.50;;;;;;5113796;28;19941;-53
2021/04/07 00:47:32;;;;;;;;;;;24.30;47.50;;;;;;5114121;28;19912;-53
2021/04/07 00:49:58;;;;;;;;;;;24.30;47.40;;;;;;5113617;28;19915;-52
2021/04/07 00:52:24;;;;;;;;;;;24.30;47.40;;;;;;5095273;28;19984;-52
2021/04/07 00:54:51;;;;;;;;;;;24.30;47.30;;;;;;5095510;28;19999;-52
2021/04/07 00:57:17;;;;;;;;;;;24.30;47.30;;;;;;5095633;28;19912;-52
2021/04/07 00:59:44;;;;;;;;;;;24.30;47.30;;;;;;5113598;28;20384;-52
2021/04/07 01:02:10;;;;;;;;;;;24.30;47.30;;;;;;5113560;28;19912;-53
2021/04/07 01:04:37;;;;;;;;;;;24.30;47.20;;;;;;5112716;28;20254;-53
2021/04/07 01:07:02;;;;;;;;;;;24.30;47.20;;;;;;5113791;28;19953;-53
2021/04/07 01:09:28;;;;;;;;;;;24.30;47.10;;;;;;5113278;28;19911;-53
2021/04/07 01:11:54;;;;;;;;;;;24.30;47.00;;;;;;5113860;28;20029;-52
2021/04/07 01:14:20;;;;;;;;;;;24.20;46.90;;;;;;5113000;28;20003;-53
2021/04/07 01:16:46;;;;;;;;;;;24.20;47.00;;;;;;5094882;28;19978;-53
2021/04/07 01:19:12;;;;;;;;;;;24.30;47.10;;;;;;5113301;28;19908;-53
2021/04/07 01:21:38;;;;;;;;;;;24.20;47.10;;;;;;5097924;28;19912;-53
2021/04/07 01:24:06;;;;;;;;;;;24.20;47.10;;;;;;5098833;28;19943;-53
2021/04/07 01:26:31;;;;;;;;;;;24.20;47.10;;;;;;5116710;27;19980;-52
2021/04/07 01:28:57;;;;;;;;;;;24.20;47.10;;;;;;5117300;28;19915;-53
2021/04/07 01:31:23;;;;;;;;;;;24.20;47.20;;;;;;5117850;28;20369;-53
2021/04/07 01:33:49;;;;;;;;;;;24.20;47.10;;;;;;5117764;28;19908;-53
2021/04/07 01:36:15;;;;;;;;;;;24.20;47.20;;;;;;5117690;28;19919;-53
2021/04/07 01:38:41;;;;;;;;;;;24.20;47.20;;;;;;5117694;28;19912;-53
2021/04/07 01:41:07;;;;;;;;;;;24.20;47.20;;;;;;5117808;28;20380;-53
2021/04/07 01:43:33;;;;;;;;;;;24.20;47.20;;;;;;5082264;28;19961;-53
2021/04/07 01:46:01;;;;;;;;;;;24.20;47.20;;;;;;5117616;28;19916;-53
2021/04/07 01:48:28;;;;;;;;;;;24.20;47.20;;;;;;5117685;28;19911;-52
2021/04/07 01:50:54;;;;;;;;;;;24.20;47.20;;;;;;5117366;28;20002;-53
2021/04/07 01:53:20;;;;;;;;;;;24.20;47.10;;;;;;5117522;28;20018;-53
2021/04/07 01:55:46;;;;;;;;;;;24.20;47.10;;;;;;5117302;28;19915;-53
2021/04/07 01:58:13;;;;;;;;;;;24.20;47.10;;;;;;5117450;28;19912;-53
2021/04/07 02:00:39;;;;;;;;;;;24.20;47.10;;;;;;5117232;28;19961;-53
2021/04/07 02:03:05;;;;;;;;;;;24.20;47.10;;;;;;5117234;28;19916;-53
2021/04/07 02:05:31;;;;;;;;;;;24.20;47.10;;;;;;5116674;28;19919;-52
2021/04/07 02:07:58;;;;;;;;;;;24.20;47.10;;;;;;5117345;28;19912;-53
2021/04/07 02:10:24;;;;;;;;;;;24.10;47.00;;;;;;5098802;28;20276;-52
2021/04/07 02:12:53;;;;;;;;;;;24.20;47.10;;;;;;5116943;28;19998;-53
2021/04/07 02:15:19;;;;;;;;;;;24.20;47.10;;;;;;5098191;28;20281;-53
2021/04/07 02:17:46;;;;;;;;;;;24.10;47.10;;;;;;5098406;28;19919;-53
2021/04/07 02:20:12;;;;;;;;;;;24.20;47.10;;;;;;5117344;28;20015;-53
2021/04/07 02:22:38;;;;;;;;;;;24.10;47.10;;;;;;5117205;28;19919;-53
2021/04/07 02:25:05;;;;;;;;;;;24.10;47.00;;;;;;5116459;28;19976;-53
2021/04/07 02:27:31;;;;;;;;;;;24.10;47.00;;;;;;5116670;28;19935;-54
2021/04/07 02:29:57;;;;;;;;;;;24.10;47.10;;;;;;5116760;28;19908;-53
2021/04/07 02:32:24;;;;;;;;;;;24.10;47.00;;;;;;5116507;28;19960;-53
2021/04/07 02:34:51;;;;;;;;;;;24.10;47.00;;;;;;5115813;28;19914;-52
2021/04/07 02:37:18;;;;;;;;;;;24.10;47.70;;;;;;5115903;28;19943;-53
2021/04/07 02:39:44;;;;;;;;;;;24.10;47.00;;;;;;5097973;28;20310;-53
2021/04/07 02:42:10;;;;;;;;;;;24.10;47.00;;;;;;5098124;28;19995;-53
2021/04/07 02:44:37;;;;;;;;;;;24.10;47.00;;;;;;5116062;28;19908;-53
2021/04/07 02:47:03;;;;;;;;;;;24.10;47.00;;;;;;5116268;28;19912;-53
2021/04/07 02:49:30;;;;;;;;;;;24.10;47.00;;;;;;5116462;28;19908;-53
2021/04/07 02:51:56;;;;;;;;;;;24.00;46.90;;;;;;5097977;28;19919;-53
2021/04/07 02:54:22;;;;;;;;;;;24.00;46.70;;;;;;5116199;28;19915;-53
2021/04/07 02:56:48;;;;;;;;;;;24.00;46.70;;;;;;5116019;28;19918;-53
2021/04/07 02:59:13;;;;;;;;;;;24.00;46.80;;;;;;5116025;28;19908;-53
2021/04/07 03:01:39;;;;;;;;;;;24.00;46.80;;;;;;5115700;28;20246;-53
2021/04/07 03:04:05;;;;;;;;;;;24.00;46.80;;;;;;5116238;28;19911;-53
2021/04/07 03:06:31;;;;;;;;;;;24.00;46.80;;;;;;5115861;28;19922;-53
2021/04/07 03:08:57;;;;;;;;;;;24.00;46.80;;;;;;5115963;28;19912;-53
2021/04/07 03:11:23;;;;;;;;;;;24.00;46.80;;;;;;5097710;28;19907;-53
2021/04/07 03:13:49;;;;;;;;;;;24.00;46.80;;;;;;5115130;28;19919;-52
2021/04/07 03:16:15;;;;;;;;;;;24.00;46.80;;;;;;5116003;27;19911;-52
2021/04/07 03:18:41;;;;;;;;;;;24.00;46.70;;;;;;5136279;27;20052;-53
2021/04/07 03:21:07;;;;;;;;;;;24.00;46.60;;;;;;5136309;27;19919;-53
2021/04/07 03:23:32;;;;;;;;;;;24.00;46.70;;;;;;5134803;27;19919;-53
2021/04/07 03:25:58;;;;;;;;;;;24.00;46.70;;;;;;5097444;28;19976;-52
2021/04/07 03:28:24;;;;;;;;;;;24.00;46.70;;;;;;5115501;28;19966;-52
2021/04/07 03:30:51;;;;;;;;;;;24.00;46.80;;;;;;5076854;28;20362;-53
2021/04/07 03:33:17;;;;;;;;;;;24.00;46.80;;;;;;5095108;28;19919;-52
2021/04/07 03:35:42;;;;;;;;;;;24.00;46.70;;;;;;5092885;28;19912;-52
2021/04/07 03:38:08;;;;;;;;;;;23.90;46.70;;;;;;5115331;28;20262;-53
2021/04/07 03:40:34;;;;;;;;;;;24.00;46.80;;;;;;5114830;28;19911;-53
2021/04/07 03:43:02;;;;;;;;;;;24.00;46.70;;;;;;5114996;28;20353;-52
2021/04/07 03:45:28;;;;;;;;;;;24.00;46.70;;;;;;5114207;28;19916;-53
2021/04/07 03:47:54;;;;;;;;;;;23.90;46.60;;;;;;5115097;28;19912;-53
2021/04/07 03:50:20;;;;;;;;;;;23.90;46.60;;;;;;5114621;28;19994;-53
2021/04/07 03:52:46;;;;;;;;;;;24.00;46.60;;;;;;5096802;28;19919;-53
2021/04/07 03:55:12;;;;;;;;;;;23.90;46.60;;;;;;5114734;28;20254;-53
2021/04/07 03:57:37;;;;;;;;;;;23.90;46.60;;;;;;5114748;28;19907;-53
2021/04/07 04:00:04;;;;;;;;;;;23.90;46.60;;;;;;5114772;28;19916;-53
2021/04/07 04:02:31;;;;;;;;;;;23.90;46.60;;;;;;5114769;28;19995;-53
2021/04/07 04:04:56;;;;;;;;;;;23.90;46.60;;;;;;5114344;28;20042;-53
2021/04/07 04:07:22;;;;;;;;;;;23.90;46.60;;;;;;5114841;28;20274;-53
2021/04/07 04:09:48;;;;;;;;;;;23.90;46.60;;;;;;5115048;28;20249;-53
2021/04/07 04:12:14;;;;;;;;;;;23.90;46.50;;;;;;5114633;28;19912;-53
2021/04/07 04:14:40;;;;;;;;;;;23.90;46.50;;;;;;5114800;28;19908;-53
2021/04/07 04:17:06;;;;;;;;;;;23.90;46.60;;;;;;5114604;28;19916;-53
2021/04/07 04:19:31;;;;;;;;;;;23.90;46.60;;;;;;5114604;28;19908;-53
2021/04/07 04:21:57;;;;;;;;;;;23.90;46.60;;;;;;5114720;28;19912;-53
2021/04/07 04:24:23;;;;;;;;;;;23.90;46.60;;;;;;5114199;28;19924;-53
2021/04/07 04:26:49;;;;;;;;;;;23.90;46.60;;;;;;5114267;28;19920;-53
2021/04/07 04:29:15;;;;;;;;;;;23.90;46.60;;;;;;5096165;28;19999;-53
2021/04/07 04:31:40;;;;;;;;;;;23.90;46.60;;;;;;5096103;28;20321;-53
2021/04/07 04:34:06;;;;;;;;;;;23.90;46.60;;;;;;5114461;28;20385;-53
2021/04/07 04:36:32;;;;;;;;;;;23.90;46.60;;;;;;5114386;28;19908;-54
2021/04/07 04:38:58;;;;;;;;;;;23.90;46.60;;;;;;5096031;28;19916;-54
2021/04/07 04:41:24;;;;;;;;;;;23.80;46.50;;;;;;5095726;28;19908;-53
2021/04/07 04:43:49;;;;;;;;;;;23.90;46.60;;;;;;5095955;28;20374;-54
2021/04/07 04:46:15;;;;;;;;;;;23.90;46.60;;;;;;5113873;28;20298;-54
2021/04/07 04:48:41;;;;;;;;;;;23.80;46.50;;;;;;5096057;28;19911;-54
2021/04/07 04:51:07;;;;;;;;;;;23.80;46.50;;;;;;5113776;28;19933;-54
2021/04/07 04:53:33;;;;;;;;;;;23.90;46.60;;;;;;5114292;28;19925;-54
2021/04/07 04:55:59;;;;;;;;;;;23.90;46.50;;;;;;5112977;28;19943;-54
2021/04/07 04:58:24;;;;;;;;;;;23.80;46.50;;;;;;5113438;28;19912;-54
2021/04/07 05:00:50;;;;;;;;;;;23.80;46.50;;;;;;5114253;28;19915;-53
2021/04/07 05:03:16;;;;;;;;;;;23.80;46.50;;;;;;5097789;28;19922;-54
2021/04/07 05:05:42;;;;;;;;;;;23.80;46.50;;;;;;5095439;28;19972;-54
2021/04/07 05:08:08;;;;;;;;;;;23.90;46.50;;;;;;5095778;28;19912;-54
2021/04/07 05:10:33;;;;;;;;;;;23.80;46.50;;;;;;5113402;28;19951;-53
2021/04/07 05:12:59;;;;;;;;;;;23.80;46.50;;;;;;5113753;28;20006;-54
2021/04/07 05:15:25;;;;;;;;;;;23.80;46.50;;;;;;5113318;28;19983;-54
2021/04/07 05:17:51;;;;;;;;;;;23.80;46.50;;;;;;5113804;28;19920;-54
2021/04/07 05:20:17;;;;;;;;;;;23.80;46.50;;;;;;5113602;28;19998;-53
2021/04/07 05:22:43;;;;;;;;;;;23.80;46.50;;;;;;5114089;28;20357;-54
2021/04/07 05:25:09;;;;;;;;;;;23.80;46.50;;;;;;5095105;28;19924;-53
2021/04/07 05:27:35;;;;;;;;;;;23.80;46.40;;;;;;5112937;28;19919;-52
2021/04/07 05:30:01;;;;;;;;;;;23.80;46.40;;;;;;5113148;28;20373;-52
2021/04/07 05:32:28;;;;;;;;;;;23.80;46.40;;;;;;5113117;28;19982;-52
2021/04/07 05:34:53;;;;;;;;;;;23.80;46.40;;;;;;5105084;28;20365;-52
2021/04/07 05:37:19;;;;;;;;;;;23.70;46.40;;;;;;5112822;28;19931;-52
2021/04/07 05:39:45;;;;;;;;;;;23.70;47.00;;;;;;5112674;28;19911;-52
2021/04/07 05:42:11;;;;;;;;;;;23.70;46.50;;;;;;5112631;28;20315;-53
2021/04/07 05:44:37;;;;;;;;;;;23.70;46.40;;;;;;5094453;28;19935;-52
2021/04/07 05:47:03;;;;;;;;;;;23.70;46.50;;;;;;5112849;28;19916;-52
2021/04/07 05:49:28;;;;;;;;;;;23.70;46.50;;;;;;5112759;28;19955;-52
2021/04/07 05:51:54;;;;;;;;;;;23.70;46.50;;;;;;5112832;28;20710;-52
2021/04/07 05:54:20;;;;;;;;;;;23.70;46.40;;;;;;5112816;28;19981;-52
2021/04/07 05:56:46;;;;;;;;;;;23.70;46.40;;;;;;5112563;28;19915;-52
2021/04/07 05:59:12;;;;;;;;;;;23.70;46.40;;;;;;5113121;28;19911;-52
2021/04/07 06:01:38;;;;;;;;;;;23.70;46.40;;;;;;5095303;28;19908;-52
2021/04/07 06:04:04;;;;;;;;;;;23.70;46.40;;;;;;5113644;28;19949;-53
2021/04/07 06:06:30;;;;;;;;;;;23.70;46.40;;;;;;5112731;27;20022;-53
2021/04/07 06:08:55;;;;;;;;;;;23.70;46.30;;;;;;5116479;27;19912;-53
2021/04/07 06:11:21;;;;;;;;;;;23.70;46.20;;;;;;5114955;28;19916;-52
2021/04/07 06:13:47;;;;;;;;;;;23.70;46.20;;;;;;5115992;28;19914;-52
2021/04/07 06:16:13;;;;;;;;;;;23.70;46.00;;;;;;5097541;28;19912;-52
2021/04/07 06:18:40;;;;;;;;;;;23.70;46.00;;;;;;5097883;28;20266;-53
2021/04/07 06:21:05;;;;;;;;;;;23.60;45.90;;;;;;5115953;28;19908;-52
2021/04/07 06:23:31;;;;;;;;;;;23.60;45.80;;;;;;5097968;28;19919;-52
2021/04/07 06:25:58;;;;;;;;;;;23.70;45.90;;;;;;5115735;28;20285;-52
2021/04/07 06:28:24;;;;;;;;;;;23.60;45.80;;;;;;5116034;28;19911;-51
2021/04/07 06:30:50;;;;;;;;;;;23.60;45.70;;;;;;5115988;28;20018;-51
2021/04/07 06:33:23;;;;;;;;;;;23.60;45.60;;;;;;5115611;28;19961;-52
2021/04/07 06:35:50;;;;;;;;;;;23.60;45.50;;;;;;5115828;28;19912;-51
2021/04/07 06:38:16;;;;;;;;;;;23.60;45.40;;;;;;5097480;28;20347;-51
2021/04/07 06:40:43;;;;;;;;;;;23.60;45.40;;;;;;5115775;28;19954;-51
2021/04/07 06:43:09;;;;;;;;;;;23.60;45.30;;;;;;5115748;28;19935;-52
2021/04/07 06:45:38;;;;;;;;;;;23.60;45.20;;;;;;5115213;28;19958;-52
2021/04/07 06:48:04;;;;;;;;;;;23.60;45.30;;;;;;5097382;28;20325;-52
2021/04/07 06:50:30;;;;;;;;;;;23.60;45.20;;;;;;5111555;28;19951;-52
2021/04/07 06:52:58;;;;;;;;;;;23.60;45.10;;;;;;5077233;28;19940;-52
2021/04/07 06:55:25;;;;;;;;;;;23.60;45.10;;;;;;5094973;28;19916;-52
2021/04/07 06:57:51;;;;;;;;;;;23.60;45.10;;;;;;5095338;28;20415;-52
2021/04/07 07:00:17;;;;;;;;;;;23.60;45.10;;;;;;5094514;28;19908;-53
2021/04/07 07:02:43;;;;;;;;;;;23.60;45.10;;;;;;5094487;28;19916;-53
2021/04/07 07:05:09;;;;;;;;;;;23.60;45.00;;;;;;5094428;28;20368;-52
2021/04/07 07:07:35;;;;;;;;;;;23.60;45.10;;;;;;5094177;28;19912;-52
2021/04/07 07:10:01;;;;;;;;;;;23.60;45.00;;;;;;5094205;28;19923;-53
2021/04/07 07:12:31;;;;;;;;;;;23.60;45.10;;;;;;5094455;28;19908;-53
2021/04/07 07:15:01;;;;;;;;;;;23.70;45.10;;;;;;5094619;28;19997;-53
2021/04/07 07:17:28;;;;;;;;;;;23.60;45.00;;;;;;5094372;28;19912;-53
2021/04/07 07:19:53;;;;;;;;;;;23.70;45.00;;;;;;5093636;28;19912;-52
2021/04/07 07:22:20;;;;;;;;;;;23.70;45.00;;;;;;5094165;28;19915;-53
2021/04/07 07:24:50;;;;;;;;;;;23.70;44.90;;;;;;5085599;28;19923;-53
2021/04/07 07:27:16;;;;;;;;;;;23.80;45.00;;;;;;5114747;28;19915;-53
2021/04/07 07:29:42;;;;;;;;;;;23.70;44.90;;;;;;5114912;28;19919;-52
2021/04/07 07:32:10;;;;;;;;;;;23.80;44.90;;;;;;5115037;28;19912;-51
2021/04/07 07:34:36;;;;;;;;;;;23.80;44.80;;;;;;5096627;28;20400;-51
2021/04/07 07:37:03;;;;;;;;;;;23.80;44.70;;;;;;5114910;28;19911;-51
2021/04/07 07:39:32;;;;;;;;;;;23.90;44.70;;;;;;5114674;28;19962;-51
2021/04/07 07:42:08;;;;;;;;;;;23.90;44.60;;;;;;5114972;28;19914;-50
2021/04/07 07:44:35;;;;;;;;;;;23.90;44.60;;;;;;5096465;28;19966;-51
2021/04/07 07:47:06;;;;;;;;;;;23.90;44.50;;;;;;5114677;28;20479;-51
2021/04/07 07:49:31;;;;;;;;;;;23.90;44.40;;;;;;5114654;28;19984;-51
2021/04/07 07:51:57;;;;;;;;;;;24.00;44.40;;;;;;5114580;28;20708;-50
2021/04/07 07:54:25;;;;;;;;;;;24.00;44.40;;;;;;5095980;28;19965;-51
2021/04/07 07:56:51;;;;;;;;;;;24.00;44.30;;;;;;5113792;28;20269;-50
2021/04/07 07:59:27;;;;;;;;;;;24.00;44.30;;;;;;5099383;28;20014;-51
2021/04/07 08:01:53;;;;;;;;;;;24.10;44.30;;;;;;5113876;28;19958;-51
2021/04/07 08:04:19;;;;;;;;;;;24.10;44.80;;;;;;5113993;28;19912;-51
2021/04/07 08:06:45;;;;;;;;;;;24.20;44.20;;;;;;5114211;28;20358;-52
2021/04/07 08:09:11;;;;;;;;;;;24.20;44.20;;;;;;5114146;28;19912;-52
2021/04/07 08:11:40;;;;;;;;;;;24.20;44.10;;;;;;5095594;28;19916;-52
2021/04/07 08:14:06;;;;;;;;;;;24.30;44.40;;;;;;5114350;28;19918;-52
2021/04/07 08:16:33;;;;;;;;;;;24.30;44.80;;;;;;5114094;28;19908;-52
2021/04/07 08:18:59;;;;;;;;;;;24.30;45.00;;;;;;5114050;28;19912;-52
2021/04/07 08:21:26;;;;;;;;;;;24.40;45.30;;;;;;5114161;28;19912;-52
2021/04/07 08:23:56;;;;;;;;;;;24.40;45.50;;;;;;5114089;28;20010;-52
2021/04/07 08:26:24;;;;;;;;;;;24.50;45.80;;;;;;5113734;28;20392;-52
2021/04/07 08:28:51;;;;;;;;;;;24.50;45.90;;;;;;5113739;28;19965;-51
2021/04/07 08:31:17;;;;;;;;;;;24.60;46.20;;;;;;5113981;28;20852;-51
2021/04/07 08:33:47;;;;;;;;;;;24.60;46.30;;;;;;5113797;28;19951;-51
2021/04/07 08:36:23;;;;;;;;;;;24.70;46.50;;;;;;5113907;28;19908;-51
2021/04/07 08:38:58;;;;;;;;;;;24.70;46.60;;;;;;5107472;28;20331;-52
2021/04/07 08:41:25;;;;;;;;;;;24.70;46.80;;;;;;5093651;28;19958;-52
2021/04/07 08:43:52;;;;;;;;;;;24.80;46.80;;;;;;5093654;28;19927;-52
2021/04/07 08:46:26;;;;;;;;;;;24.80;46.80;;;;;;5058695;28;20052;-52
2021/04/07 08:48:53;;;;;;;;;;;24.80;46.90;;;;;;5093335;28;19912;-51
2021/04/07 08:51:23;;;;;;;;;;;24.90;47.10;;;;;;5110575;28;19998;-52
2021/04/07 08:53:51;;;;;;;;;;;24.90;47.10;;;;;;5113476;28;19911;-52
2021/04/07 08:56:27;;;;;;;;;;;24.90;47.30;;;;;;5113400;28;19951;-53
2021/04/07 08:58:54;;;;;;;;;;;25.00;47.40;;;;;;5095528;28;19955;-52
2021/04/07 09:01:21;;;;;;;;;;;25.00;47.50;;;;;;5113797;28;20413;-52
2021/04/07 09:03:47;;;;;;;;;;;25.10;47.50;;;;;;5113474;28;19911;-52
2021/04/07 09:06:14;;;;;;;;;;;25.10;47.60;;;;;;5095488;28;19911;-52
2021/04/07 09:08:51;;;;;;;;;;;25.20;48.00;;;;;;5113267;28;20281;-52
2021/04/07 09:11:25;;;;;;;;;;;25.20;47.80;;;;;;5113504;28;19911;-52
2021/04/07 09:13:51;;;;;;;;;;;25.30;48.20;;;;;;5113449;28;19951;-52
2021/04/07 09:16:28;;;;;;;;;;;25.30;48.40;;;;;;5094965;28;19908;-52
2021/04/07 09:18:54;;;;;;;;;;;25.30;48.60;;;;;;5113331;28;19912;-52
2021/04/07 09:21:21;;;;;;;;;;;25.30;48.80;;;;;;5113386;28;19998;-52
2021/04/07 09:23:51;;;;;;;;;;;25.40;48.90;;;;;;5113128;28;19923;-52
2021/04/07 09:27:30;;;;;;;11.50;6.88;;;25.40;48.40;;;;;;5067242;27;1630366;-61
2021/04/07 09:30:05;;;;;;;15.68;7.60;;;25.50;50.20;;;;;;5099377;28;20077;-57
2021/04/07 09:32:34;;;;;;;10.43;6.75;;;25.30;50.90;;;;;;5110524;28;20031;-59
2021/04/07 09:35:02;;;;;;;13.55;7.03;;;25.20;51.10;;;;;;5117242;28;20031;-59
2021/04/07 09:37:36;;;;;;;11.60;6.50;;;25.20;51.10;;;;;;5112661;28;20028;-59
2021/04/07 09:40:02;;;;;;;12.70;7.18;;;25.10;51.50;;;;;;5110250;28;20063;-59
2021/04/07 09:42:28;;;;;;;12.10;7.18;;;25.10;51.20;;;;;;5110117;28;20047;-59
2021/04/07 09:44:54;;;;;;;14.23;7.55;;;24.90;50.90;;;;;;5110307;28;20026;-59
2021/04/07 09:47:28;;;;;;;15.32;8.20;;;24.90;50.80;;;;;;5109943;28;20040;-59
2021/04/07 09:49:54;;;;;;;12.35;7.07;;;24.80;51.10;;;;;;5110162;28;20380;-59
2021/04/07 09:52:20;;;;;;;15.52;7.53;;;24.90;51.20;;;;;;5109985;28;20119;-59
2021/04/07 09:54:46;;;;;;;12.48;6.95;;;24.80;51.30;;;;;;5091735;28;20190;-59
2021/04/07 09:57:12;;;;;;;13.70;6.80;;;24.80;51.60;;;;;;5112777;28;20119;-59
2021/04/07 09:59:46;;;;;;;14.10;7.22;;;24.90;51.80;;;;;;5109778;28;20099;-59
2021/04/07 10:02:34;;;;;;;9.77;5.90;;;24.90;52.60;;;;;;5113541;28;20453;-58
2021/04/07 10:05:00;;;;;;;16.60;6.25;;;24.90;52.60;;;;;;5104305;28;20027;-59
2021/04/07 10:07:30;;;;;;;13.30;5.70;;;24.90;52.50;;;;;;5111802;28;20441;-59
2021/04/07 10:09:57;;;;;;;;;;;25.00;53.10;;;;;;5130680;28;20131;-58
2021/04/07 10:12:28;;;;;;;12.68;6.03;;;25.00;52.20;;;;;;5130168;28;20117;-58
2021/04/07 10:14:59;;;;;;;10.73;6.10;;;25.10;52.70;;;;;;5129905;28;20095;-60
2021/04/07 10:17:30;;;;;;;13.88;6.70;;;25.10;52.60;;;;;;5073352;28;20034;-58
2021/04/07 10:20:05;;;;;;;13.38;6.90;;;25.10;52.60;;;;;;5111515;28;20027;-58
2021/04/07 10:22:32;;;;;;;14.80;8.90;;;25.20;52.60;;;;;;5111494;28;20027;-59
2021/04/07 10:27:40;;;;;;;13.68;8.10;;;25.20;52.70;;;;;;5105445;28;20055;-59
2021/04/07 10:30:08;;;;;;;14.52;7.32;;;25.20;52.70;;;;;;5089171;28;20103;-60
2021/04/07 10:32:42;;;;;;;16.85;7.28;;;25.20;52.70;;;;;;5070619;28;20036;-59
2021/04/07 10:35:26;;;;;;;17.60;13.15;;;25.20;53.00;;;;;;5070624;28;20031;-59
2021/04/07 10:37:57;;;;;;;28.15;24.10;;;25.30;53.20;;;;;;5080991;28;20302;-59
2021/04/07 10:40:32;;;;;;;22.88;15.55;;;25.30;53.40;;;;;;5075607;28;20521;-59
2021/04/07 10:43:10;;;;;;;23.05;10.45;;;25.40;53.50;;;;;;5074889;28;20028;-59
2021/04/07 10:45:36;;;;;;;17.75;11.63;;;25.40;53.70;;;;;;5075278;28;20085;-59
2021/04/07 10:48:03;;;;;;;17.10;7.35;;;25.50;53.30;;;;;;5040648;28;20052;-60
2021/04/07 10:50:30;;;;;;;15.57;8.45;;;25.50;53.10;;;;;;5075242;28;20040;-59
2021/04/07 10:52:57;;;;;;;14.23;7.07;;;25.50;53.20;;;;;;5057256;28;20035;-59
2021/04/07 10:55:26;;;;;;;15.15;7.28;;;25.50;53.00;;;;;;5074985;28;20047;-59
2021/04/07 10:57:58;;;;;;;15.68;7.15;;;25.50;53.10;;;;;;5057122;28;20453;-59
2021/04/07 11:00:38;;;;;;;11.95;7.28;;;25.50;53.20;;;;;;5056848;28;20060;-59
2021/04/07 11:03:06;;;;;;;10.93;6.28;;;25.50;53.00;;;;;;5073683;28;20047;-58
2021/04/07 11:05:46;;;;;;;13.75;7.18;;;25.40;53.00;;;;;;5074603;28;20044;-59
2021/04/07 11:08:14;;;;;;;14.93;7.10;;;25.40;53.10;;;;;;5074782;28;20029;-58
2021/04/07 11:10:41;;;;;;;11.60;6.72;;;25.40;53.10;;;;;;5074804;28;20042;-58
2021/04/07 11:13:08;;;;;;;14.25;6.65;;;25.40;53.10;;;;;;5073615;28;20101;-58
2021/04/07 11:15:34;;;;;;;10.60;6.20;;;25.40;53.20;;;;;;5074048;28;20021;-58
2021/04/07 11:18:01;;;;;;;12.23;6.00;;;25.40;53.30;;;;;;5056558;28;20039;-61
2021/04/07 11:20:28;;;;;;;12.10;6.75;;;25.40;53.20;;;;;;5056138;28;20037;-59
2021/04/07 11:22:55;;;;;;;10.32;6.60;;;25.50;53.30;;;;;;5056007;28;20358;-59
2021/04/07 11:25:21;;;;;;;14.55;7.45;;;25.50;53.20;;;;;;5072225;28;20056;-59
2021/04/07 11:27:50;;;;;;;12.88;6.70;;;25.50;53.10;;;;;;5073951;28;20478;-58
2021/04/07 11:30:16;;;;;;;12.70;7.18;;;25.50;53.00;;;;;;5074045;28;20206;-59
2021/04/07 11:32:47;;;;;;;9.68;7.15;;;25.50;52.90;;;;;;5039622;28;20028;-58
2021/04/07 11:35:24;;;;;;;;;;;25.50;52.90;;;;;;5074243;28;20044;-58
2021/04/07 11:43:11;;;;;;;10.27;6.80;;;25.70;52.50;;;;;;5073887;28;20052;-57
2021/04/07 11:45:38;;;;;;;14.90;8.50;;;25.70;52.50;;;;;;5055971;28;20117;-57
2021/04/07 11:48:04;;;;;;;14.50;8.88;;;25.70;52.50;;;;;;5072278;28;20056;-56
2021/04/07 11:50:31;;;;;;;14.35;8.90;;;25.70;52.60;;;;;;5054969;28;20052;-56
2021/04/07 11:52:57;;;;;;;13.30;8.82;;;25.70;52.50;;;;;;5055607;28;20439;-56
2021/04/07 11:55:23;;;;;;;16.80;9.10;;;25.80;52.60;;;;;;5073053;28;20119;-57
2021/04/07 11:57:49;;;;;;;19.45;8.85;;;25.70;52.60;;;;;;5073405;28;20543;-57
2021/04/07 12:00:16;;;;;;;19.08;9.13;;;25.80;52.70;;;;;;5054947;28;20109;-57
2021/04/07 12:02:43;;;;;;;15.60;8.50;;;25.80;52.70;;;;;;5073208;28;20490;-56
2021/04/07 12:05:11;;;;;;;15.30;8.63;;;25.80;52.80;;;;;;5073237;28;20036;-56
2021/04/07 12:07:37;;;;;;;31.27;8.70;;;25.70;52.70;;;;;;5079782;28;20103;-56
2021/04/07 12:10:06;;;;;;;37.95;9.35;;;25.80;52.90;;;;;;5093188;28;20469;-56
2021/04/07 12:12:32;;;;;;;26.80;8.80;;;25.70;53.10;;;;;;5075391;28;20035;-56
2021/04/07 12:14:59;;;;;;;25.25;8.75;;;25.70;53.00;;;;;;5087299;28;20087;-56
2021/04/07 12:17:25;;;;;;;24.42;11.23;;;25.70;53.10;;;;;;5072778;28;20040;-56
2021/04/07 12:19:51;;;;;;;19.38;8.07;;;25.80;53.10;;;;;;5054473;28;20362;-57
2021/04/07 12:22:17;;;;;;;18.90;7.75;;;25.70;53.00;;;;;;5072670;28;20032;-57
2021/04/07 12:24:43;;;;;;;16.17;7.88;;;25.70;53.00;;;;;;5054975;28;20033;-56
2021/04/07 12:27:10;;;;;;;24.08;8.50;;;25.80;53.10;;;;;;5072629;28;20044;-56
2021/04/07 12:29:36;;;;;;;16.65;7.35;;;25.70;53.00;;;;;;5072775;28;20029;-56
2021/04/07 12:32:02;;;;;;;16.65;7.50;;;25.70;53.00;;;;;;5073137;28;20028;-57
2021/04/07 12:34:29;;;;;;;17.33;7.70;;;25.80;53.10;;;;;;5055035;28;20028;-56
2021/04/07 12:36:58;;;;;;;9.52;6.20;;;25.80;52.90;;;;;;5055382;28;20141;-57
2021/04/07 12:39:25;;;;;;;12.20;7.85;;;25.80;52.90;;;;;;5055080;28;20032;-57
2021/04/07 12:41:59;;;;;;;12.38;7.32;;;25.80;52.90;;;;;;5054686;28;20024;-57
2021/04/07 12:44:26;;;;;;;13.35;6.70;;;25.80;52.80;;;;;;5055248;28;20032;-56
2021/04/07 12:46:52;;;;;;;12.77;7.30;;;25.80;52.80;;;;;;5072812;28;20150;-57
2021/04/07 12:49:18;;;;;;;11.77;7.20;;;25.80;52.80;;;;;;5072907;28;20056;-56
2021/04/07 12:51:44;;;;;;;13.13;6.65;;;25.80;52.80;;;;;;5054769;28;20037;-56
2021/04/07 12:54:13;;;;;;;15.02;7.05;;;25.80;52.80;;;;;;5054171;28;20107;-56
2021/04/07 12:56:40;;;;;;;9.27;6.13;;;25.80;52.80;;;;;;5072337;28;20434;-56
2021/04/07 12:59:06;;;;;;;14.65;6.60;;;25.90;52.90;;;;;;5072526;28;20033;-57
2021/04/07 13:01:33;;;;;;;13.00;6.53;;;25.90;52.80;;;;;;5072345;28;20028;-56
2021/04/07 13:03:59;;;;;;;12.43;6.70;;;25.80;52.70;;;;;;5054733;28;20036;-56
2021/04/07 13:06:25;;;;;;;14.45;6.30;;;25.90;52.80;;;;;;5072436;28;20085;-56
2021/04/07 13:08:51;;;;;;;10.77;6.60;;;25.90;52.70;;;;;;5054392;28;20071;-56
2021/04/07 13:11:17;;;;;;;9.82;6.03;;;25.90;52.70;;;;;;5054498;28;20142;-57
2021/04/07 13:13:43;;;;;;;14.70;6.05;;;25.90;52.70;;;;;;5072410;28;20044;-56
2021/04/07 13:16:09;;;;;;;9.82;5.60;;;26.00;52.70;;;;;;5071789;28;20055;-57
2021/04/07 13:18:36;;;;;;;11.82;5.20;;;26.00;52.60;;;;;;5054665;28;20036;-56
2021/04/07 13:21:10;;;;;;;12.95;6.00;;;26.00;52.40;;;;;;5072191;28;20422;-56
2021/04/07 13:23:38;;;;;;;11.55;5.45;;;26.00;52.20;;;;;;5072071;28;20044;-56
2021/04/07 13:26:05;;;;;;;12.13;5.15;;;26.10;52.20;;;;;;5072083;28;20422;-56
2021/04/07 13:28:31;;;;;;;14.98;5.63;;;26.10;52.10;;;;;;5072513;28;20033;-56
2021/04/07 13:30:57;;;;;;;12.45;5.53;;;26.10;52.00;;;;;;5054271;28;20023;-56
2021/04/07 13:33:32;;;;;;;12.27;5.25;;;26.10;51.90;;;;;;5072169;28;20074;-56
2021/04/07 13:36:01;;;;;;;12.32;5.63;;;26.10;51.90;;;;;;5054027;28;20032;-56
2021/04/07 13:41:30;;;;;;;16.55;6.13;;;26.10;51.70;;;;;;5072679;28;20040;-56
2021/04/07 13:43:56;;;;;;;13.10;6.05;;;26.20;51.60;;;;;;5072322;28;20098;-57
2021/04/07 13:46:22;;;;;;;12.98;5.25;;;26.20;51.50;;;;;;5072449;28;20045;-56
2021/04/07 13:48:48;;;;;;;14.70;6.07;;;26.20;51.50;;;;;;5072313;28;20091;-56
2021/04/07 13:51:17;;;;;;;13.93;5.03;;;26.20;51.90;;;;;;5072073;28;20070;-57
2021/04/07 13:53:43;;;;;;;56.53;50.30;;;26.20;51.30;;;;;;5072412;28;20028;-56
2021/04/07 13:56:14;;;;;;;77.80;69.38;;;26.20;51.30;;;;;;5072058;28;20032;-56